createdAt,value
2022-08-17T00:01:26.265Z,20.34
2022-08-17T00:06:31.608Z,20.14
2022-08-17T00:11:38.797Z,19.96
2022-08-17T00:16:57.314Z,19.82
2022-08-17T00:22:31.323Z,19.71
2022-08-17T00:27:26.223Z,19.64
2022-08-17T00:33:12.321Z,19.60
2022-08-17T00:37:52.086Z,19.62
2022-08-17T00:42:54.783Z,19.66
2022-08-17T00:47:57.476Z,19.68
2022-08-17T00:53:00.302Z,19.70
2022-08-17T01:04:46.276Z,19.80
2022-08-17T01:09:51.367Z,19.78
2022-08-17T01:14:54.035Z,19.76
2022-08-17T01:19:56.871Z,19.76
2022-08-17T01:25:02.130Z,19.78
2022-08-17T01:30:56.731Z,19.81
2022-08-17T01:35:32.356Z,19.82
2022-08-17T01:40:43.238Z,19.86
2022-08-17T01:45:49.190Z,19.90
2022-08-17T01:51:07.599Z,19.88
2022-08-17T01:56:14.488Z,19.83
2022-08-17T02:01:19.976Z,19.83
2022-08-17T02:06:27.525Z,19.88
2022-08-17T02:11:33.995Z,19.92
2022-08-17T02:16:40.333Z,19.91
2022-08-17T02:21:46.320Z,19.91
2022-08-17T02:26:49.085Z,19.90
2022-08-17T02:31:51.766Z,19.87
2022-08-17T02:36:54.947Z,19.82
2022-08-17T02:42:02.311Z,19.85
2022-08-17T02:47:05.282Z,19.90
2022-08-17T02:52:08.180Z,19.94
2022-08-17T02:57:11.219Z,19.94
2022-08-17T03:02:13.921Z,19.92
2022-08-17T03:07:16.779Z,19.93
2022-08-17T03:12:19.508Z,19.97
2022-08-17T03:17:22.310Z,19.97
2022-08-17T03:22:36.623Z,19.94
2022-08-17T03:27:42.053Z,19.87
2022-08-17T03:32:48.922Z,19.77
2022-08-17T03:37:56.932Z,19.70
2022-08-17T03:43:09.210Z,19.67
2022-08-17T03:48:30.876Z,19.66
2022-08-17T03:53:52.577Z,19.62
2022-08-17T03:58:55.259Z,19.53
2022-08-17T04:03:57.941Z,19.50
2022-08-17T04:09:00.670Z,19.52
2022-08-17T04:14:05.036Z,19.50
2022-08-17T04:19:07.776Z,19.49
2022-08-17T04:24:10.472Z,19.57
2022-08-17T04:29:13.183Z,19.65
2022-08-17T04:34:19.666Z,19.81
2022-08-17T04:39:25.132Z,19.99
2022-08-17T04:44:37.535Z,20.14
2022-08-17T04:49:40.943Z,20.26
2022-08-17T04:54:43.686Z,20.42
2022-08-17T04:59:46.416Z,20.64
2022-08-17T05:04:50.054Z,20.85
2022-08-17T05:09:52.804Z,20.99
2022-08-17T05:14:55.488Z,21.12
2022-08-17T05:19:58.145Z,21.29
2022-08-17T05:25:01.901Z,21.44
2022-08-17T05:30:06.546Z,21.70
2022-08-17T05:35:09.578Z,21.93
2022-08-17T05:40:13.146Z,22.14
2022-08-17T05:45:23.636Z,22.40
2022-08-17T05:51:05.260Z,22.68
2022-08-17T05:56:30.156Z,23.01
2022-08-17T06:02:03.056Z,23.28
2022-08-17T06:07:25.843Z,23.54
2022-08-17T06:12:31.302Z,23.77
2022-08-17T06:17:35.657Z,24.01
2022-08-17T06:22:46.166Z,24.26
2022-08-17T06:28:14.753Z,24.52
2022-08-17T06:33:22.731Z,24.68
2022-08-17T06:38:53.354Z,24.80
2022-08-17T06:44:43.336Z,24.96
2022-08-17T06:49:55.249Z,25.13
2022-08-17T06:55:20.266Z,25.34
2022-08-17T07:00:28.409Z,25.42
2022-08-17T07:05:38.768Z,25.37
2022-08-17T07:10:51.218Z,25.39
2022-08-17T07:16:17.542Z,25.31
2022-08-17T07:21:47.177Z,25.28
2022-08-17T07:27:23.586Z,25.49
2022-08-17T07:32:37.021Z,25.60
2022-08-17T07:37:53.298Z,25.72
2022-08-17T07:43:05.797Z,25.90
2022-08-17T07:48:21.464Z,26.05
2022-08-17T07:53:26.262Z,26.17
2022-08-17T07:58:28.970Z,26.27
2022-08-17T08:03:34.090Z,26.41
2022-08-17T08:08:50.599Z,26.47
2022-08-17T08:13:53.378Z,26.53
2022-08-17T08:19:02.950Z,26.58
2022-08-17T08:24:24.248Z,26.77
2022-08-17T08:30:04.941Z,27.00
2022-08-17T08:35:17.533Z,27.15
2022-08-17T08:40:32.314Z,27.44
2022-08-17T08:45:53.174Z,27.59
2022-08-17T08:51:21.855Z,27.73
2022-08-17T08:56:35.475Z,27.70
2022-08-17T09:02:11.743Z,27.87
2022-08-17T09:07:57.274Z,28.25
2022-08-17T09:13:10.980Z,28.26
2022-08-17T09:19:01.090Z,28.06
2022-08-17T09:24:13.138Z,27.90
2022-08-17T09:29:17.854Z,27.95
2022-08-17T09:34:33.334Z,28.13
2022-08-17T09:39:50.379Z,28.43
2022-08-17T09:45:22.009Z,28.81
2022-08-17T09:50:55.375Z,28.99
2022-08-17T09:56:09.527Z,29.09
2022-08-17T10:01:48.229Z,29.04
2022-08-17T10:07:19.224Z,29.03
2022-08-17T10:12:47.004Z,28.84
2022-08-17T10:18:31.894Z,28.96
2022-08-17T10:23:54.773Z,29.33
2022-08-17T10:28:58.346Z,29.60
2022-08-17T10:34:19.443Z,29.50
2022-08-17T10:39:50.566Z,29.58
2022-08-17T10:45:05.692Z,29.68
2022-08-17T10:50:46.440Z,29.78
2022-08-17T10:56:22.665Z,29.51
2022-08-17T11:01:58.088Z,29.48
2022-08-17T11:07:19.286Z,29.89
2022-08-17T11:12:36.883Z,30.32
2022-08-17T11:18:05.713Z,30.88
2022-08-17T11:23:14.728Z,31.26
2022-08-17T11:28:24.256Z,31.29
2022-08-17T11:33:29.453Z,31.45
2022-08-17T11:38:42.069Z,31.18
2022-08-17T11:44:10.603Z,30.75
2022-08-17T11:49:44.007Z,30.40
2022-08-17T11:54:48.638Z,30.43
2022-08-17T11:59:55.693Z,31.04
2022-08-17T12:05:27.301Z,31.33
2022-08-17T12:10:34.327Z,31.14
2022-08-17T12:15:49.303Z,30.81
2022-08-17T12:21:13.509Z,30.84
2022-08-17T12:26:27.211Z,31.01
2022-08-17T12:31:51.919Z,31.16
2022-08-17T12:37:04.959Z,31.61
2022-08-17T12:42:23.946Z,31.89
2022-08-17T12:47:30.059Z,32.52
2022-08-17T12:52:39.953Z,32.97
2022-08-17T12:57:47.573Z,33.05
2022-08-17T13:03:15.763Z,32.63
2022-08-17T13:08:23.569Z,32.13
2022-08-17T13:13:34.988Z,31.76
2022-08-17T13:18:40.666Z,31.56
2022-08-17T13:24:05.779Z,31.46
2022-08-17T13:29:19.413Z,31.58
2022-08-17T13:34:28.002Z,32.01
2022-08-17T13:39:41.398Z,32.24
2022-08-17T13:44:44.550Z,32.65
2022-08-17T13:49:49.437Z,33.24
2022-08-17T13:54:52.663Z,33.55
2022-08-17T14:00:15.937Z,33.06
2022-08-17T14:05:18.735Z,32.35
2022-08-17T14:10:21.828Z,31.85
2022-08-17T14:15:55.832Z,31.53
2022-08-17T14:20:48.754Z,31.19
2022-08-17T14:25:51.470Z,31.11
2022-08-17T14:30:54.407Z,32.30
2022-08-17T14:35:57.719Z,33.76
2022-08-17T14:41:00.440Z,34.93
2022-08-17T14:46:03.146Z,35.55
2022-08-17T14:51:06.536Z,35.94
2022-08-17T14:56:09.231Z,35.74
2022-08-17T15:01:13.723Z,35.14
2022-08-17T15:06:17.020Z,35.05
2022-08-17T15:11:19.806Z,35.49
2022-08-17T15:16:22.776Z,35.86
2022-08-17T15:21:25.797Z,34.97
2022-08-17T15:26:28.666Z,34.09
2022-08-17T15:31:32.139Z,33.59
2022-08-17T15:36:35.871Z,33.03
2022-08-17T15:41:38.639Z,32.62
2022-08-17T15:46:41.504Z,32.42
2022-08-17T15:51:44.346Z,32.35
2022-08-17T15:56:47.200Z,33.14
2022-08-17T16:03:14.515Z,35.08
2022-08-17T16:07:14.517Z,36.48
2022-08-17T16:12:20.737Z,37.26
2022-08-17T16:17:38.866Z,37.30
2022-08-17T16:22:46.931Z,36.26
2022-08-17T16:27:54.565Z,34.84
2022-08-17T16:33:00.436Z,33.53
2022-08-17T16:38:03.501Z,32.49
2022-08-17T16:43:10.693Z,31.67
2022-08-17T16:48:15.453Z,31.00
2022-08-17T16:53:19.661Z,30.43
2022-08-17T16:58:22.719Z,29.92
2022-08-17T17:03:27.765Z,29.39
2022-08-17T17:08:49.163Z,28.89
2022-08-17T17:13:58.534Z,28.45
2022-08-17T17:19:12.501Z,28.11
2022-08-17T17:24:50.090Z,27.81
2022-08-17T17:30:13.251Z,27.51
2022-08-17T17:35:25.304Z,27.21
2022-08-17T17:40:50.226Z,26.94
2022-08-17T17:46:07.706Z,26.68
2022-08-17T17:51:45.631Z,26.41
2022-08-17T17:57:09.697Z,26.14
2022-08-17T18:02:53.717Z,25.88
2022-08-17T18:08:10.619Z,25.61
2022-08-17T18:13:27.259Z,25.36
2022-08-17T18:18:38.679Z,25.13
2022-08-17T18:23:51.575Z,24.91
2022-08-17T18:28:54.323Z,24.71
2022-08-17T18:34:46.114Z,24.54
2022-08-17T18:39:46.265Z,24.42
2022-08-17T18:44:54.329Z,24.36
2022-08-17T18:50:19.279Z,24.26
2022-08-17T18:55:24.847Z,24.14
2022-08-17T19:00:30.666Z,23.99
2022-08-17T19:06:07.767Z,23.85
2022-08-17T19:11:33.938Z,23.71
2022-08-17T19:16:51.765Z,23.56
2022-08-17T19:21:59.065Z,23.42
2022-08-17T19:27:19.943Z,23.27
2022-08-17T19:32:29.165Z,23.09
2022-08-17T19:38:12.989Z,22.92
2022-08-17T19:43:48.122Z,22.69
2022-08-17T19:48:55.019Z,22.49
2022-08-17T19:54:24.807Z,22.32
2022-08-17T20:00:02.377Z,22.18
2022-08-17T20:05:11.672Z,22.12
2022-08-17T20:10:27.034Z,22.12
2022-08-17T20:15:34.054Z,22.16
2022-08-17T20:21:01.391Z,22.21
2022-08-17T20:26:34.706Z,22.22
2022-08-17T20:31:44.535Z,22.13
2022-08-17T20:37:10.514Z,21.98
2022-08-17T20:42:22.135Z,21.81
2022-08-17T20:47:32.056Z,21.67
2022-08-17T20:52:41.387Z,21.57
2022-08-17T20:57:46.416Z,21.46
2022-08-17T21:03:10.262Z,21.32
2022-08-17T21:08:16.650Z,21.14
2022-08-17T21:13:25.855Z,20.97
2022-08-17T21:18:28.444Z,20.85
2022-08-17T21:23:52.633Z,20.75
2022-08-17T21:29:31.424Z,20.66
2022-08-17T21:34:35.511Z,20.58
2022-08-17T21:39:41.125Z,20.54
2022-08-17T21:44:50.436Z,20.52
2022-08-17T21:49:55.303Z,20.46
2022-08-17T21:55:02.552Z,20.37
2022-08-17T22:00:15.992Z,20.20
2022-08-17T22:05:29.997Z,20.03
2022-08-17T22:10:42.794Z,19.87
2022-08-17T22:16:15.404Z,19.78
2022-08-17T22:21:30.036Z,19.74
2022-08-17T22:26:59.805Z,19.68
2022-08-17T22:32:02.618Z,19.61
2022-08-17T22:37:29.108Z,19.52
2022-08-17T22:42:32.300Z,19.46
2022-08-17T22:47:39.467Z,19.46
2022-08-17T22:53:04.502Z,19.50
2022-08-17T22:58:31.258Z,19.49
2022-08-17T23:03:53.554Z,19.45
2022-08-17T23:08:57.786Z,19.45
2022-08-17T23:14:00.582Z,19.45
2022-08-17T23:19:03.283Z,19.41
2022-08-17T23:24:08.930Z,19.36
2022-08-17T23:29:11.694Z,19.25
2022-08-17T23:34:15.360Z,19.14
2022-08-17T23:39:24.384Z,19.00
2022-08-17T23:44:28.933Z,18.93
2022-08-17T23:49:32.607Z,18.88
2022-08-17T23:54:41.628Z,18.83
2022-08-17T23:59:44.632Z,18.80
